Time;durP1;ratioP1;P1;durP2;ratioP2;P2;SDS_P1;SDS_P2;PMS_P1;PMS_P2;Temp;Humidity;BMP_temperature;BMP_pressure;BME280_temperature;BME280_humidity;BME280_pressure;Samples;Min_cycle;Max_cycle;Signal;HPM_P1;HPM_P2
2023/06/02 00:01:17;;;;;;;6.30;3.73;;;18.60;52.00;;;;;;5115506;28;20843;-57
2023/06/02 00:03:44;;;;;;;5.40;4.87;;;18.60;52.00;;;;;;5115882;28;20504;-57
2023/06/02 00:06:14;;;;;;;8.20;4.47;;;18.50;52.00;;;;;;5115720;28;20475;-57
2023/06/02 00:08:41;;;;;;;6.33;4.70;;;18.50;51.90;;;;;;5115447;28;20963;-57
2023/06/02 00:11:11;;;;;;;6.00;3.40;;;18.50;51.80;;;;;;5115725;28;20465;-57
2023/06/02 00:13:38;;;;;;;7.83;4.17;;;18.40;51.70;;;;;;5115881;28;20453;-57
2023/06/02 00:16:06;;;;;;;6.70;4.20;;;18.50;51.80;;;;;;5115646;28;20470;-57
2023/06/02 00:18:33;;;;;;;6.27;3.53;;;18.40;51.60;;;;;;5115537;28;20543;-57
2023/06/02 00:21:01;;;;;;;4.70;3.57;;;18.40;51.70;;;;;;5115357;28;21004;-57
2023/06/02 00:23:29;;;;;;;5.53;3.70;;;18.40;51.70;;;;;;5115731;28;20443;-57
2023/06/02 00:25:56;;;;;;;6.33;4.23;;;18.40;51.90;;;;;;5115394;28;20459;-57
2023/06/02 00:28:24;;;;;;;8.53;3.73;;;18.40;51.90;;;;;;5115344;28;20538;-57
2023/06/02 00:30:51;;;;;;;3.40;2.97;;;18.30;51.80;;;;;;5114997;28;20810;-57
2023/06/02 00:33:18;;;;;;;5.00;4.17;;;18.30;51.80;;;;;;5115285;28;20447;-57
2023/06/02 00:35:45;;;;;;;4.30;3.67;;;18.30;51.90;;;;;;5115145;28;20469;-57
2023/06/02 00:38:12;;;;;;;5.20;3.60;;;18.30;51.90;;;;;;5115120;28;20450;-57
2023/06/02 00:40:39;;;;;;;3.43;2.83;;;18.30;51.90;;;;;;5115028;28;20475;-57
2023/06/02 00:43:06;;;;;;;4.43;3.30;;;18.30;52.00;;;;;;5114703;28;20786;-57
2023/06/02 00:45:34;;;;;;;6.97;3.57;;;18.20;52.00;;;;;;5114972;28;20580;-57
2023/06/02 00:48:01;;;;;;;4.53;3.00;;;18.20;52.00;;;;;;5114961;28;20443;-57
2023/06/02 00:50:28;;;;;;;4.80;3.37;;;18.20;52.10;;;;;;5115356;28;20558;-57
2023/06/02 00:52:57;;;;;;;4.33;2.90;;;18.20;52.20;;;;;;5115002;28;20928;-57
2023/06/02 00:55:24;;;;;;;4.77;3.57;;;18.20;52.00;;;;;;5115333;28;20474;-57
2023/06/02 00:57:53;;;;;;;4.10;3.70;;;18.20;51.80;;;;;;5115190;28;20443;-57
2023/06/02 01:00:20;;;;;;;6.43;3.70;;;18.20;51.50;;;;;;5114877;28;20479;-57
2023/06/02 01:02:49;;;;;;;4.90;4.20;;;18.10;51.10;;;;;;5114852;28;20447;-57
2023/06/02 01:05:19;;;;;;;6.83;3.83;;;18.10;51.00;;;;;;5114973;28;20446;-56
2023/06/02 01:07:47;;;;;;;4.30;3.87;;;18.10;51.30;;;;;;5113964;28;20872;-57
2023/06/02 01:10:15;;;;;;;5.63;4.07;;;18.10;51.50;;;;;;5115033;28;20443;-57
2023/06/02 01:12:42;;;;;;;3.80;3.50;;;18.10;51.60;;;;;;5114365;28;20964;-56
2023/06/02 01:15:10;;;;;;;4.80;3.60;;;18.00;51.50;;;;;;5114499;28;20447;-57
2023/06/02 01:17:37;;;;;;;3.57;3.20;;;17.90;51.40;;;;;;5114397;28;20447;-57
2023/06/02 01:20:09;;;;;;;7.10;3.20;;;17.90;51.60;;;;;;5114426;28;20446;-57
2023/06/02 01:22:43;;;;;;;5.83;3.57;;;17.90;51.80;;;;;;5114307;28;20463;-57
2023/06/02 01:25:22;;;;;;;3.77;3.47;;;17.90;52.20;;;;;;5114337;28;20430;-57
2023/06/02 01:27:49;;;;;;;5.43;3.47;;;17.90;52.00;;;;;;5114368;28;20450;-57
2023/06/02 01:30:16;;;;;;;7.33;3.83;;;17.80;52.00;;;;;;5113888;28;20929;-57
2023/06/02 01:32:52;;;;;;;4.43;3.17;;;17.80;51.90;;;;;;5114286;28;20857;-57
2023/06/02 01:35:21;;;;;;;4.23;3.57;;;17.70;51.70;;;;;;5114160;28;20435;-57
2023/06/02 01:37:54;;;;;;;3.73;3.27;;;17.80;52.00;;;;;;5114017;28;20458;-57
2023/06/02 01:40:23;;;;;;;3.83;3.30;;;17.80;51.90;;;;;;5114315;28;20428;-57
2023/06/02 01:42:51;;;;;;;6.50;3.93;;;17.70;51.90;;;;;;5114040;28;20482;-57
2023/06/02 01:45:19;;;;;;;4.40;3.67;;;17.70;51.90;;;;;;5113924;28;20447;-56
2023/06/02 01:47:46;;;;;;;7.40;3.93;;;17.70;51.90;;;;;;5113891;28;20454;-56
2023/06/02 01:50:12;;;;;;;8.17;4.07;;;17.70;52.30;;;;;;5114314;28;20454;-56
2023/06/02 01:52:39;;;;;;;10.77;3.67;;;17.70;52.30;;;;;;5113856;28;20450;-56
2023/06/02 01:55:07;;;;;;;9.03;4.10;;;17.70;52.30;;;;;;5113755;28;20496;-56
2023/06/02 01:57:35;;;;;;;6.63;4.47;;;17.60;52.30;;;;;;5113840;28;20816;-56
2023/06/02 02:00:04;;;;;;;5.47;4.30;;;17.60;52.30;;;;;;5113946;28;20482;-56
2023/06/02 02:02:31;;;;;;;9.60;4.10;;;17.60;52.50;;;;;;5113936;28;20474;-56
2023/06/02 02:04:58;;;;;;;4.93;4.20;;;17.60;52.40;;;;;;5114417;28;20937;-56
2023/06/02 02:07:25;;;;;;;8.10;4.97;;;17.60;52.60;;;;;;5113672;28;20484;-56
2023/06/02 02:09:52;;;;;;;7.07;4.83;;;17.50;52.30;;;;;;5113528;28;21053;-56
2023/06/02 02:12:18;;;;;;;16.00;4.43;;;17.50;52.40;;;;;;5113457;28;20474;-56
2023/06/02 02:14:49;;;;;;;4.80;3.50;;;17.50;52.20;;;;;;5113713;28;20495;-56
2023/06/02 02:17:16;;;;;;;8.70;4.67;;;17.50;52.20;;;;;;5113959;28;20459;-56
2023/06/02 02:19:44;;;;;;;6.13;4.13;;;17.40;52.30;;;;;;5116573;28;20443;-56
2023/06/02 02:22:11;;;;;;;9.27;4.87;;;17.40;52.30;;;;;;5117812;28;20482;-56
2023/06/02 02:24:38;;;;;;;9.43;4.57;;;17.40;52.40;;;;;;5117795;28;20453;-56
2023/06/02 02:27:08;;;;;;;5.20;4.07;;;17.40;52.40;;;;;;5117669;28;20462;-56
2023/06/02 02:29:36;;;;;;;7.57;4.53;;;17.30;52.50;;;;;;5117770;28;20465;-56
2023/06/02 02:32:05;;;;;;;7.30;4.10;;;17.30;52.60;;;;;;5117266;28;20450;-56
2023/06/02 02:34:32;;;;;;;8.87;5.17;;;17.30;52.60;;;;;;5117608;28;20499;-56
2023/06/02 02:37:01;;;;;;;5.63;4.70;;;17.30;52.60;;;;;;5117411;28;20516;-56
2023/06/02 02:39:28;;;;;;;14.67;6.53;;;17.30;52.70;;;;;;5117507;28;20447;-56
2023/06/02 02:41:55;;;;;;;7.40;4.97;;;17.30;52.70;;;;;;5117341;28;20477;-56
2023/06/02 02:44:21;;;;;;;13.30;6.60;;;17.20;52.70;;;;;;5117467;28;20454;-56
2023/06/02 02:46:48;;;;;;;9.63;5.47;;;17.20;52.80;;;;;;5117340;28;20459;-56
2023/06/02 02:49:16;;;;;;;11.17;6.70;;;17.20;52.90;;;;;;5116957;28;21023;-56
2023/06/02 02:51:43;;;;;;;8.07;6.50;;;17.20;52.90;;;;;;5117302;28;20496;-56
2023/06/02 02:54:10;;;;;;;10.27;7.20;;;17.20;52.90;;;;;;5117138;28;20443;-56
2023/06/02 02:56:38;;;;;;;9.70;8.37;;;17.20;53.00;;;;;;5117025;28;20462;-56
2023/06/02 02:59:05;;;;;;;13.50;10.53;;;17.10;52.90;;;;;;5116833;28;21005;-56
2023/06/02 03:01:32;;;;;;;14.30;12.90;;;17.10;52.90;;;;;;5117068;28;20474;-56
2023/06/02 03:03:58;;;;;;;23.30;17.27;;;17.10;52.80;;;;;;5117070;28;20619;-56
2023/06/02 03:06:31;;;;;;;17.07;15.30;;;17.10;52.70;;;;;;5117073;28;20462;-56
2023/06/02 03:08:58;;;;;;;11.60;7.43;;;17.10;52.90;;;;;;5116726;28;20995;-56
2023/06/02 03:11:25;;;;;;;5.27;4.80;;;17.00;52.90;;;;;;5116199;28;20507;-56
2023/06/02 03:13:53;;;;;;;9.00;5.13;;;17.00;53.10;;;;;;5115562;28;20473;-56
2023/06/02 03:16:20;;;;;;;7.20;4.27;;;17.00;53.00;;;;;;5115522;28;20542;-56
2023/06/02 03:18:47;;;;;;;6.90;4.17;;;17.00;53.00;;;;;;5115688;28;20442;-56
2023/06/02 03:21:13;;;;;;;6.23;4.10;;;17.00;52.80;;;;;;5115383;28;20453;-56
2023/06/02 03:23:41;;;;;;;9.13;3.77;;;17.00;52.70;;;;;;5115477;28;20546;-56
2023/06/02 03:26:10;;;;;;;9.30;4.00;;;16.90;52.50;;;;;;5115093;28;20990;-56
2023/06/02 03:28:37;;;;;;;7.40;3.67;;;16.90;52.40;;;;;;5115221;28;20450;-56
2023/06/02 03:31:04;;;;;;;7.17;3.30;;;16.90;52.50;;;;;;5114951;28;20492;-56
2023/06/02 03:33:31;;;;;;;8.07;3.90;;;16.90;52.70;;;;;;5115123;28;20443;-56
2023/06/02 03:35:57;;;;;;;7.20;4.23;;;16.80;52.60;;;;;;5115193;28;20459;-56
2023/06/02 03:38:24;;;;;;;6.20;3.23;;;16.80;52.70;;;;;;5115387;28;20453;-56
2023/06/02 03:40:52;;;;;;;15.53;3.60;;;16.70;52.50;;;;;;5114878;28;20940;-56
2023/06/02 03:43:19;;;;;;;5.30;2.67;;;16.70;52.70;;;;;;5115564;28;20479;-56
2023/06/02 03:45:46;;;;;;;8.87;3.70;;;16.70;52.90;;;;;;5114765;28;20463;-56
2023/06/02 03:48:12;;;;;;;6.83;3.67;;;16.70;53.20;;;;;;5115091;28;20871;-56
2023/06/02 03:50:41;;;;;;;6.13;3.03;;;16.70;53.20;;;;;;5114980;28;20447;-57
2023/06/02 03:53:07;;;;;;;9.20;4.20;;;16.60;53.10;;;;;;5115097;28;20443;-56
2023/06/02 03:55:34;;;;;;;10.63;3.27;;;16.60;53.20;;;;;;5114858;28;20514;-56
2023/06/02 03:58:02;;;;;;;7.40;3.47;;;16.60;53.20;;;;;;5114798;28;21014;-56
2023/06/02 04:00:29;;;;;;;8.40;4.00;;;16.60;53.10;;;;;;5115000;28;20465;-56
2023/06/02 04:02:57;;;;;;;8.37;3.30;;;16.60;53.20;;;;;;5115352;28;20485;-56
2023/06/02 04:05:24;;;;;;;6.30;3.90;;;16.60;53.30;;;;;;5115586;28;20510;-56
2023/06/02 04:07:50;;;;;;;9.00;4.70;;;16.60;53.30;;;;;;5115265;28;20447;-56
2023/06/02 04:12:59;;;;;;;9.73;4.63;;;16.60;53.00;;;;;;5091900;27;20574;-56
2023/06/02 04:15:26;;;;;;;11.50;6.50;;;16.60;53.00;;;;;;5090837;28;21043;-56
2023/06/02 04:17:53;;;;;;;7.17;5.57;;;16.60;53.10;;;;;;5090707;28;20921;-56
2023/06/02 04:20:19;;;;;;;10.07;6.60;;;16.50;53.10;;;;;;5090971;28;20453;-56
2023/06/02 04:22:46;;;;;;;9.60;5.43;;;16.50;53.00;;;;;;5090837;28;20443;-56
2023/06/02 04:25:13;;;;;;;7.30;4.63;;;16.60;53.10;;;;;;5090796;28;20444;-56
2023/06/02 04:27:40;;;;;;;6.57;4.90;;;16.60;53.20;;;;;;5090626;28;20451;-56
2023/06/02 04:30:09;;;;;;;9.57;5.27;;;16.60;53.20;;;;;;5090731;28;20452;-56
2023/06/02 04:32:36;;;;;;;12.63;6.70;;;16.60;53.30;;;;;;5090580;28;20828;-56
2023/06/02 04:35:02;;;;;;;11.70;9.33;;;16.60;53.50;;;;;;5090183;28;20873;-56
2023/06/02 04:37:29;;;;;;;13.57;10.13;;;16.60;53.00;;;;;;5090301;28;20851;-56
2023/06/02 04:39:57;;;;;;;17.30;10.23;;;16.70;52.60;;;;;;5090508;28;20446;-56
2023/06/02 04:42:23;;;;;;;12.77;11.57;;;16.70;52.40;;;;;;5090464;28;20467;-56
2023/06/02 04:44:51;;;;;;;21.50;16.20;;;16.70;52.30;;;;;;5090603;28;20474;-56
2023/06/02 04:47:19;;;;;;;21.40;17.10;;;16.70;51.80;;;;;;5090270;28;20467;-56
2023/06/02 04:49:45;;;;;;;21.40;16.60;;;16.80;51.50;;;;;;5090270;28;20498;-56
2023/06/02 04:52:12;;;;;;;19.57;16.17;;;16.80;51.40;;;;;;5090219;28;20549;-56
2023/06/02 04:54:39;;;;;;;16.10;13.10;;;16.80;51.50;;;;;;5090377;28;20514;-56
2023/06/02 04:57:06;;;;;;;16.20;12.23;;;16.80;51.50;;;;;;5090051;28;20476;-56
2023/06/02 04:59:33;;;;;;;13.60;12.20;;;16.80;51.30;;;;;;5090139;28;20546;-56
2023/06/02 05:02:00;;;;;;;14.70;13.17;;;16.80;51.10;;;;;;5090009;28;20569;-56
2023/06/02 05:04:28;;;;;;;14.37;12.70;;;16.80;51.30;;;;;;5090030;28;20534;-56
2023/06/02 05:06:55;;;;;;;16.83;15.03;;;16.80;51.20;;;;;;5089955;28;20875;-56
2023/06/02 05:09:22;;;;;;;18.70;16.00;;;16.90;51.20;;;;;;5089942;28;20543;-56
2023/06/02 05:11:48;;;;;;;19.27;14.90;;;16.90;51.10;;;;;;5090930;28;20487;-57
2023/06/02 05:14:15;;;;;;;17.33;14.23;;;16.90;51.20;;;;;;5091479;28;20497;-57
2023/06/02 05:16:44;;;;;;;17.80;14.03;;;16.90;51.20;;;;;;5089899;28;20985;-57
2023/06/02 05:19:10;;;;;;;16.33;14.60;;;16.90;51.10;;;;;;5089683;28;20451;-57
2023/06/02 05:21:38;;;;;;;16.40;14.70;;;17.00;51.10;;;;;;5089668;28;20452;-57
2023/06/02 05:24:06;;;;;;;14.50;13.00;;;17.00;51.20;;;;;;5077546;28;20449;-57
2023/06/02 05:26:32;;;;;;;15.43;13.20;;;17.00;51.20;;;;;;5075900;28;20464;-57
2023/06/02 05:28:59;;;;;;;14.67;13.13;;;17.00;51.00;;;;;;5076197;28;20455;-55
2023/06/02 05:31:26;;;;;;;14.47;13.00;;;17.10;51.20;;;;;;5075661;28;20852;-55
2023/06/02 05:33:52;;;;;;;18.43;13.87;;;17.10;51.00;;;;;;5075913;28;20452;-57
2023/06/02 05:36:19;;;;;;;17.80;13.60;;;17.00;51.00;;;;;;5075818;28;20472;-57
2023/06/02 05:38:47;;;;;;;18.40;13.13;;;17.00;50.80;;;;;;5076018;28;20456;-57
2023/06/02 05:41:14;;;;;;;14.23;11.77;;;17.00;50.80;;;;;;5075817;28;20452;-55
2023/06/02 05:43:40;;;;;;;22.60;13.37;;;17.00;51.00;;;;;;5075416;28;20452;-57
2023/06/02 05:46:07;;;;;;;14.33;10.90;;;17.10;51.40;;;;;;5075265;28;21021;-55
2023/06/02 05:48:34;;;;;;;15.80;12.07;;;17.00;51.40;;;;;;5075619;28;20444;-55
2023/06/02 05:51:00;;;;;;;16.47;11.27;;;17.00;51.50;;;;;;5075344;28;21004;-55
2023/06/02 05:53:27;;;;;;;15.10;11.00;;;17.00;51.30;;;;;;5075622;28;20448;-56
2023/06/02 05:55:55;;;;;;;15.73;12.10;;;17.10;51.40;;;;;;5075511;28;20477;-56
2023/06/02 05:58:22;;;;;;;20.57;15.37;;;17.10;51.90;;;;;;5076369;28;20453;-56
2023/06/02 06:00:49;;;;;;;20.83;16.17;;;17.10;51.70;;;;;;5075501;28;20498;-56
2023/06/02 06:03:15;;;;;;;20.07;17.00;;;17.10;51.50;;;;;;5075457;28;20874;-56
2023/06/02 06:05:42;;;;;;;18.40;16.57;;;17.10;51.60;;;;;;5075293;28;20472;-56
2023/06/02 06:08:09;;;;;;;20.47;16.47;;;17.10;51.50;;;;;;5075240;28;20444;-56
2023/06/02 06:10:35;;;;;;;21.67;18.70;;;17.10;51.40;;;;;;5075132;28;20448;-56
2023/06/02 06:13:03;;;;;;;23.70;17.90;;;17.10;51.40;;;;;;5074914;28;20990;-56
2023/06/02 06:15:30;;;;;;;19.77;17.60;;;17.10;51.40;;;;;;5075116;28;20472;-56
2023/06/02 06:17:57;;;;;;;23.67;20.00;;;17.10;51.40;;;;;;5074989;28;20468;-56
2023/06/02 06:20:23;;;;;;;22.47;19.43;;;17.10;51.20;;;;;;5075071;28;20448;-56
2023/06/02 06:22:50;;;;;;;26.57;22.80;;;17.10;51.40;;;;;;5074980;28;20468;-57
2023/06/02 06:25:17;;;;;;;26.60;23.90;;;17.20;51.50;;;;;;5058588;28;20481;-57
2023/06/02 06:27:44;;;;;;;25.87;23.40;;;17.20;51.00;;;;;;5054899;28;20464;-57
2023/06/02 06:30:12;;;;;;;25.20;22.77;;;17.30;51.00;;;;;;5070400;28;20518;-56
2023/06/02 06:32:39;;;;;;;23.20;20.80;;;17.40;51.10;;;;;;5074634;28;20473;-56
2023/06/02 06:35:07;;;;;;;23.93;21.47;;;17.50;51.20;;;;;;5073619;28;20460;-56
2023/06/02 06:37:34;;;;;;;24.53;22.10;;;17.50;50.60;;;;;;5074400;28;20967;-56
2023/06/02 06:40:00;;;;;;;24.70;22.30;;;17.60;50.40;;;;;;5074646;28;20456;-56
2023/06/02 06:42:27;;;;;;;25.43;22.90;;;17.70;50.20;;;;;;5074657;28;20814;-56
2023/06/02 06:44:54;;;;;;;23.67;21.27;;;17.80;50.10;;;;;;5075367;28;20456;-56
2023/06/02 06:47:22;;;;;;;22.20;19.87;;;17.90;50.10;;;;;;5074867;28;20464;-56
2023/06/02 06:49:49;;;;;;;22.30;20.00;;;17.90;50.10;;;;;;5074075;28;20958;-56
2023/06/02 06:52:16;;;;;;;20.63;18.50;;;18.00;50.00;;;;;;5074343;28;20989;-56
2023/06/02 06:54:43;;;;;;;20.83;17.93;;;18.10;50.10;;;;;;5074542;28;20452;-56
2023/06/02 06:57:10;;;;;;;18.00;16.10;;;18.10;50.10;;;;;;5074245;28;20469;-56
2023/06/02 06:59:37;;;;;;;17.50;15.70;;;18.20;50.50;;;;;;5074247;28;20449;-56
2023/06/02 07:02:04;;;;;;;21.10;16.57;;;18.30;50.50;;;;;;5074191;28;20440;-56
2023/06/02 07:04:32;;;;;;;18.37;16.50;;;18.20;50.30;;;;;;5073813;28;20822;-56
2023/06/02 07:06:59;;;;;;;19.60;17.77;;;18.30;49.70;;;;;;5073935;28;20465;-56
2023/06/02 07:09:25;;;;;;;19.77;17.70;;;18.30;50.10;;;;;;5074058;28;20449;-56
2023/06/02 07:11:52;;;;;;;17.27;15.57;;;18.30;49.70;;;;;;5073558;28;20488;-56
2023/06/02 07:14:19;;;;;;;17.57;15.10;;;18.40;50.30;;;;;;5074233;28;20482;-56
2023/06/02 07:16:46;;;;;;;17.03;14.57;;;18.30;49.80;;;;;;5073968;28;20472;-56
2023/06/02 07:19:13;;;;;;;18.47;14.90;;;18.40;49.70;;;;;;5073810;28;21011;-56
2023/06/02 07:21:41;;;;;;;18.33;15.47;;;18.40;49.70;;;;;;5075092;28;20472;-56
2023/06/02 07:24:08;;;;;;;15.87;14.20;;;18.40;49.70;;;;;;5075240;28;20449;-56
2023/06/02 07:26:34;;;;;;;16.30;12.70;;;18.50;50.40;;;;;;5074764;28;20472;-56
2023/06/02 07:29:01;;;;;;;14.57;12.93;;;18.50;49.50;;;;;;5074645;28;20518;-56
2023/06/02 07:31:28;;;;;;;18.87;15.57;;;18.50;49.20;;;;;;5074321;28;20455;-56
2023/06/02 07:33:56;;;;;;;18.40;16.50;;;18.50;49.40;;;;;;5074363;28;20534;-56
2023/06/02 07:36:23;;;;;;;19.20;17.30;;;18.60;49.50;;;;;;5074898;28;20513;-56
2023/06/02 07:38:51;;;;;;;19.07;17.17;;;18.60;49.30;;;;;;5073943;28;20447;-56
2023/06/02 07:41:18;;;;;;;22.63;19.03;;;18.70;49.00;;;;;;5073696;28;20482;-56
2023/06/02 07:43:45;;;;;;;20.17;18.17;;;18.80;48.60;;;;;;5073694;28;20494;-56
2023/06/02 07:46:11;;;;;;;17.60;15.70;;;18.80;48.50;;;;;;5072922;28;21013;-56
2023/06/02 07:48:38;;;;;;;19.13;17.33;;;18.90;48.30;;;;;;5073679;28;20456;-56
2023/06/02 07:51:05;;;;;;;22.17;19.27;;;19.00;48.20;;;;;;5073852;28;20491;-56
2023/06/02 07:53:31;;;;;;;20.53;18.80;;;19.10;48.10;;;;;;5073409;28;20485;-56
2023/06/02 07:55:59;;;;;;;24.30;18.80;;;19.10;47.10;;;;;;5073614;28;20464;-56
2023/06/02 07:58:26;;;;;;;19.80;17.67;;;19.20;47.10;;;;;;5073578;28;20444;-56
2023/06/02 08:00:53;;;;;;;20.20;18.10;;;19.30;46.90;;;;;;5073445;28;20449;-56
2023/06/02 08:03:21;;;;;;;20.70;18.63;;;19.40;46.40;;;;;;5073336;28;20452;-56
2023/06/02 08:05:48;;;;;;;22.53;19.90;;;19.50;46.10;;;;;;5073296;28;20476;-56
2023/06/02 08:08:15;;;;;;;22.80;18.57;;;19.70;46.50;;;;;;5073247;28;20456;-56
2023/06/02 08:10:42;;;;;;;18.23;16.53;;;19.80;46.20;;;;;;5072910;28;20965;-56
2023/06/02 08:13:11;;;;;;;18.70;13.43;;;19.90;46.10;;;;;;5072909;28;20997;-56
2023/06/02 08:15:38;;;;;;;18.60;13.20;;;20.00;45.80;;;;;;5073119;28;20473;-56
2023/06/02 08:18:05;;;;;;;14.13;12.70;;;20.10;46.10;;;;;;5073148;28;20456;-56
2023/06/02 08:20:31;;;;;;;18.77;14.43;;;20.10;45.80;;;;;;5073311;28;20494;-56
2023/06/02 08:22:58;;;;;;;17.07;15.27;;;20.20;45.80;;;;;;5073193;28;20475;-57
2023/06/02 08:25:25;;;;;;;18.83;15.87;;;20.20;45.20;;;;;;5073077;28;20817;-56
2023/06/02 08:27:51;;;;;;;25.43;16.27;;;20.30;45.00;;;;;;5073240;28;20452;-56
2023/06/02 08:30:20;;;;;;;17.70;15.20;;;20.40;45.10;;;;;;5073274;28;20519;-56
2023/06/02 08:32:48;;;;;;;17.80;15.10;;;20.40;45.20;;;;;;5072971;28;20476;-56
2023/06/02 08:35:14;;;;;;;18.23;14.83;;;20.50;45.20;;;;;;5072936;28;20449;-56
2023/06/02 08:37:41;;;;;;;15.87;14.13;;;20.60;44.60;;;;;;5072845;28;20450;-56
2023/06/02 08:40:11;;;;;;;14.67;13.23;;;20.60;44.40;;;;;;5072966;28;20460;-56
2023/06/02 08:42:38;;;;;;;16.87;14.47;;;20.70;44.70;;;;;;5073016;28;20428;-56
2023/06/02 08:45:07;;;;;;;16.07;14.37;;;20.70;44.70;;;;;;5073414;28;20445;-57
2023/06/02 08:47:35;;;;;;;17.10;13.50;;;20.70;44.60;;;;;;5072856;28;20502;-57
2023/06/02 08:50:05;;;;;;;15.60;14.07;;;20.70;44.60;;;;;;5072887;28;20449;-57
2023/06/02 08:52:35;;;;;;;16.47;14.87;;;20.80;45.00;;;;;;5073850;28;20563;-57
2023/06/02 08:55:03;;;;;;;16.87;14.87;;;20.80;44.80;;;;;;5072600;28;20950;-57
2023/06/02 08:57:30;;;;;;;17.47;14.73;;;20.90;45.10;;;;;;5073094;28;20468;-57
2023/06/02 08:59:57;;;;;;;15.80;13.80;;;20.90;44.10;;;;;;5076372;28;20447;-57
2023/06/02 09:02:23;;;;;;;16.43;14.73;;;21.00;44.00;;;;;;5076192;28;20826;-56
2023/06/02 09:04:52;;;;;;;16.53;14.80;;;21.10;43.80;;;;;;5076196;28;20823;-56
2023/06/02 09:07:22;;;;;;;16.07;14.40;;;21.20;43.70;;;;;;5076264;28;20543;-57
2023/06/02 09:09:51;;;;;;;17.87;15.83;;;21.20;43.90;;;;;;5076430;28;20425;-57
2023/06/02 09:12:18;;;;;;;17.50;13.87;;;21.30;43.70;;;;;;5076113;28;20495;-57
2023/06/02 09:14:47;;;;;;;17.50;15.20;;;21.40;43.70;;;;;;5076243;28;20818;-57
2023/06/02 09:17:27;;;;;;;18.57;16.57;;;21.60;43.20;;;;;;5076112;28;20472;-57
2023/06/02 09:19:57;;;;;;;20.20;15.73;;;21.70;42.30;;;;;;5076070;28;20962;-57
2023/06/02 09:22:24;;;;;;;19.47;13.87;;;21.80;42.20;;;;;;5076147;28;20437;-57
2023/06/02 09:24:52;;;;;;;21.10;15.83;;;21.90;41.90;;;;;;5076195;28;20814;-57
2023/06/02 09:27:19;;;;;;;16.70;14.73;;;21.90;41.60;;;;;;5075677;28;20834;-57
2023/06/02 09:29:47;;;;;;;15.23;13.07;;;22.00;41.60;;;;;;5076022;28;20448;-57
2023/06/02 09:32:15;;;;;;;16.00;14.37;;;22.10;41.80;;;;;;5075872;28;20440;-57
2023/06/02 09:34:43;;;;;;;15.53;14.03;;;22.20;41.80;;;;;;5075887;28;20453;-57
2023/06/02 09:37:14;;;;;;;16.40;13.57;;;22.30;41.80;;;;;;5075848;28;20483;-57
2023/06/02 09:39:43;;;;;;;17.83;13.70;;;22.40;41.00;;;;;;5075862;28;20436;-57
2023/06/02 09:42:10;;;;;;;15.50;13.80;;;22.60;40.80;;;;;;5075778;28;20535;-57
2023/06/02 09:44:38;;;;;;;14.13;12.73;;;22.70;40.50;;;;;;5076019;28;20440;-57
2023/06/02 09:47:19;;;;;;;14.93;13.53;;;22.70;39.70;;;;;;5075651;28;20465;-57
2023/06/02 09:49:46;;;;;;;28.17;15.03;;;23.00;40.10;;;;;;5075882;28;20429;-57
2023/06/02 09:52:15;;;;;;;16.33;13.93;;;23.40;39.30;;;;;;5075680;28;20471;-57
2023/06/02 09:54:43;;;;;;;18.00;14.10;;;23.60;38.20;;;;;;5075202;28;20579;-57
2023/06/02 09:57:10;;;;;;;12.33;11.27;;;24.00;38.70;;;;;;5075516;28;20510;-57
2023/06/02 09:59:39;;;;;;;14.20;12.80;;;24.30;37.70;;;;;;5075514;28;20440;-57
2023/06/02 10:02:06;;;;;;;17.73;12.83;;;24.50;37.00;;;;;;5075072;28;20960;-57
2023/06/02 10:04:33;;;;;;;19.20;13.10;;;24.70;37.10;;;;;;5075432;28;20451;-57
2023/06/02 10:07:13;;;;;;;13.20;11.50;;;25.00;37.10;;;;;;5075186;28;20465;-57
2023/06/02 10:09:55;;;;;;;12.80;11.70;;;25.50;36.40;;;;;;5074904;28;20429;-57
2023/06/02 10:12:36;;;;;;;11.33;10.23;;;26.10;35.90;;;;;;5074850;28;20461;-57
2023/06/02 10:15:36;;;;;;;10.60;9.40;;;26.70;34.30;;;;;;5075299;28;20433;-57
2023/06/02 10:18:19;;;;;;;10.53;9.40;;;27.50;33.50;;;;;;5075093;28;20448;-57
2023/06/02 10:21:01;;;;;;;12.33;9.80;;;28.20;32.00;;;;;;5075076;28;20433;-57
2023/06/02 10:23:45;;;;;;;18.10;8.80;;;28.90;30.60;;;;;;5075031;28;20429;-57
2023/06/02 10:26:26;;;;;;;13.63;9.10;;;29.50;29.70;;;;;;5074953;28;20468;-57
2023/06/02 10:28:54;;;;;;;11.70;9.30;;;30.00;28.90;;;;;;5075027;28;20460;-58
2023/06/02 10:31:31;;;;;;;12.97;10.53;;;30.60;28.50;;;;;;5075113;28;20478;-56
2023/06/02 10:34:00;;;;;;;11.20;8.77;;;30.80;27.60;;;;;;5075323;28;20500;-56
2023/06/02 10:36:27;;;;;;;10.63;8.20;;;30.60;27.30;;;;;;5074827;28;20472;-56
2023/06/02 10:38:55;;;;;;;18.13;10.23;;;30.60;27.70;;;;;;5075467;28;20494;-56
2023/06/02 10:42:02;;;;;;;10.03;9.03;;;30.60;27.20;;;;;;5074497;28;20456;-56
2023/06/02 10:44:31;;;;;;;10.47;9.10;;;30.70;27.30;;;;;;5074449;28;20452;-56
2023/06/02 10:47:35;;;;;;;10.40;9.40;;;31.20;27.10;;;;;;5074566;28;20503;-56
2023/06/02 10:50:04;;;;;;;10.43;8.67;;;31.90;26.50;;;;;;5074228;28;20459;-56
2023/06/02 10:52:33;;;;;;;12.07;9.90;;;32.70;25.70;;;;;;5074617;28;20821;-56
2023/06/02 10:55:25;;;;;;;10.90;9.80;;;33.40;24.80;;;;;;5074312;28;20494;-55
2023/06/02 10:57:53;;;;;;;14.07;9.13;;;34.10;23.90;;;;;;5074338;28;20455;-56
2023/06/02 11:00:52;;;;;;;10.70;9.00;;;34.50;23.00;;;;;;5074283;28;20500;-56
2023/06/02 11:03:35;;;;;;;10.60;9.40;;;35.00;22.90;;;;;;5074239;28;20520;-55
2023/06/02 11:06:22;;;;;;;10.77;9.60;;;35.50;22.40;;;;;;5073811;28;20838;-55
2023/06/02 11:08:51;;;;;;;10.27;9.17;;;36.00;22.00;;;;;;5074212;28;20495;-56
2023/06/02 11:11:51;;;;;;;10.53;9.47;;;36.40;21.50;;;;;;5073936;28;20495;-56
2023/06/02 11:14:19;;;;;;;10.47;9.00;;;36.80;20.80;;;;;;5073787;28;20225;-56
2023/06/02 11:16:46;;;;;;;10.47;8.50;;;37.30;20.40;;;;;;5073944;28;20221;-56
2023/06/02 11:19:13;;;;;;;8.77;7.95;;;37.60;19.90;;;;;;5073930;28;20202;-56
2023/06/02 11:21:40;;;;;;;13.07;8.55;;;37.70;19.40;;;;;;5073641;28;20205;-56
2023/06/02 11:24:07;;;;;;;9.38;8.30;;;38.00;19.40;;;;;;5073836;28;20200;-56
2023/06/02 11:26:48;;;;;;;11.73;9.23;;;38.40;19.20;;;;;;5073691;28;20252;-56
2023/06/02 11:29:16;;;;;;;11.23;10.07;;;38.70;19.40;;;;;;5073779;28;20655;-56
2023/06/02 11:31:49;;;;;;;9.32;7.75;;;38.90;19.30;;;;;;5073557;28;20237;-56
2023/06/02 11:34:17;;;;;;;10.55;7.80;;;39.20;18.80;;;;;;5073916;28;20228;-56
2023/06/02 11:36:48;;;;;;;9.90;7.13;;;39.30;17.80;;;;;;5073866;28;20254;-57
2023/06/02 11:39:15;;;;;;;11.15;7.10;;;39.40;17.90;;;;;;5073633;28;20194;-56
2023/06/02 11:41:55;;;;;;;7.28;5.40;;;39.70;17.90;;;;;;5073654;28;20202;-57
2023/06/02 11:44:22;;;;;;;8.35;6.35;;;39.90;17.70;;;;;;5073613;28;20648;-56
2023/06/02 11:46:50;;;;;;;6.90;6.05;;;40.10;17.90;;;;;;5073192;28;20575;-56
2023/06/02 11:49:17;;;;;;;6.18;5.60;;;40.20;17.60;;;;;;5073587;28;20198;-56
2023/06/02 11:51:44;;;;;;;7.70;5.25;;;40.30;17.50;;;;;;5073638;28;20197;-56
2023/06/02 11:54:10;;;;;;;7.20;5.80;;;40.50;17.50;;;;;;5073314;28;20229;-56
2023/06/02 11:56:37;;;;;;;7.97;4.90;;;40.70;17.50;;;;;;5073361;28;20638;-57
2023/06/02 11:59:04;;;;;;;5.35;4.38;;;41.00;17.10;;;;;;5073053;28;20731;-56
2023/06/02 12:01:32;;;;;;;11.20;5.28;;;41.20;17.30;;;;;;5073530;28;20208;-56
2023/06/02 12:04:05;;;;;;;10.02;5.38;;;41.40;17.00;;;;;;5073488;28;20202;-56
2023/06/02 12:06:33;;;;;;;8.13;4.60;;;41.50;16.40;;;;;;5073618;28;20316;-56
2023/06/02 12:09:10;;;;;;;6.57;4.10;;;41.50;17.00;;;;;;5073333;28;20209;-56
2023/06/02 12:11:37;;;;;;;8.15;3.92;;;41.70;17.00;;;;;;5073352;28;20303;-56
2023/06/02 12:14:05;;;;;;;6.80;4.05;;;41.80;17.10;;;;;;5073003;28;20707;-56
2023/06/02 12:16:34;;;;;;;6.05;4.10;;;42.10;16.80;;;;;;5072945;28;20715;-56
2023/06/02 12:19:14;;;;;;;8.45;4.03;;;42.40;16.80;;;;;;5073357;28;20244;-57
2023/06/02 12:21:41;;;;;;;4.40;3.03;;;42.70;16.40;;;;;;5074703;28;20189;-57
2023/06/02 12:24:09;;;;;;;5.47;3.38;;;43.00;16.10;;;;;;5074586;28;20641;-56
2023/06/02 12:26:42;;;;;;;9.32;4.20;;;43.20;16.00;;;;;;5073278;28;20217;-56
2023/06/02 12:29:10;;;;;;;7.38;4.47;;;43.30;15.50;;;;;;5073077;28;20202;-57
2023/06/02 12:31:38;;;;;;;7.68;3.30;;;43.30;15.50;;;;;;5073056;28;20702;-57
2023/06/02 12:34:06;;;;;;;7.65;3.63;;;43.30;15.30;;;;;;5075901;28;20317;-57
2023/06/02 12:36:35;;;;;;;6.72;3.65;;;43.50;15.60;;;;;;5076976;28;20221;-57
2023/06/02 12:39:03;;;;;;;5.20;3.13;;;43.60;15.70;;;;;;5076990;28;20202;-56
2023/06/02 12:41:30;;;;;;;5.82;3.55;;;43.80;15.50;;;;;;5076995;28;20285;-56
2023/06/02 12:43:56;;;;;;;7.22;3.90;;;44.00;15.30;;;;;;5077129;28;20209;-56
2023/06/02 12:46:26;;;;;;;6.28;3.55;;;43.80;15.60;;;;;;5076877;28;20230;-56